sensor_id;sensor_type;location;lat;lon;timestamp;P1;durP1;ratioP1;P2;durP2;ratioP2
31500;SDS011;31032;49.512;10.892;2022-07-29T00:00:21;3.03;;;0.90;;
31500;SDS011;31032;49.512;10.892;2022-07-29T00:02:47;3.50;;;1.25;;
31500;SDS011;31032;49.512;10.892;2022-07-29T00:05:12;2.13;;;1.10;;
31500;SDS011;31032;49.512;10.892;2022-07-29T00:07:38;2.53;;;0.95;;
31500;SDS011;31032;49.512;10.892;2022-07-29T00:10:04;2.65;;;1.10;;
31500;SDS011;31032;49.512;10.892;2022-07-29T00:12:29;3.00;;;1.10;;
31500;SDS011;31032;49.512;10.892;2022-07-29T00:14:55;1.95;;;1.00;;
31500;SDS011;31032;49.512;10.892;2022-07-29T00:17:21;3.97;;;1.05;;
31500;SDS011;31032;49.512;10.892;2022-07-29T00:19:47;1.63;;;0.80;;
31500;SDS011;31032;49.512;10.892;2022-07-29T00:22:12;2.00;;;1.00;;
31500;SDS011;31032;49.512;10.892;2022-07-29T00:24:37;2.45;;;0.95;;
31500;SDS011;31032;49.512;10.892;2022-07-29T00:27:03;2.35;;;1.00;;
31500;SDS011;31032;49.512;10.892;2022-07-29T00:29:28;2.58;;;0.90;;
31500;SDS011;31032;49.512;10.892;2022-07-29T00:31:53;2.25;;;1.08;;
31500;SDS011;31032;49.512;10.892;2022-07-29T00:34:19;3.47;;;1.05;;
31500;SDS011;31032;49.512;10.892;2022-07-29T00:37:03;2.53;;;0.73;;
31500;SDS011;31032;49.512;10.892;2022-07-29T00:39:28;2.08;;;1.10;;
31500;SDS011;31032;49.512;10.892;2022-07-29T00:41:54;2.15;;;1.02;;
31500;SDS011;31032;49.512;10.892;2022-07-29T00:44:19;2.42;;;0.95;;
31500;SDS011;31032;49.512;10.892;2022-07-29T00:46:45;4.43;;;1.00;;
31500;SDS011;31032;49.512;10.892;2022-07-29T00:49:10;2.42;;;0.95;;
31500;SDS011;31032;49.512;10.892;2022-07-29T00:51:36;1.92;;;1.00;;
31500;SDS011;31032;49.512;10.892;2022-07-29T00:54:02;1.35;;;0.90;;
31500;SDS011;31032;49.512;10.892;2022-07-29T00:56:29;2.45;;;0.77;;
31500;SDS011;31032;49.512;10.892;2022-07-29T00:58:56;2.80;;;0.80;;
31500;SDS011;31032;49.512;10.892;2022-07-29T01:01:22;0.90;;;0.70;;
31500;SDS011;31032;49.512;10.892;2022-07-29T01:03:47;3.53;;;1.00;;
31500;SDS011;31032;49.512;10.892;2022-07-29T01:06:13;1.75;;;0.80;;
31500;SDS011;31032;49.512;10.892;2022-07-29T01:08:40;2.92;;;0.90;;
31500;SDS011;31032;49.512;10.892;2022-07-29T01:11:06;3.88;;;0.93;;
31500;SDS011;31032;49.512;10.892;2022-07-29T01:13:32;2.80;;;0.90;;
31500;SDS011;31032;49.512;10.892;2022-07-29T01:15:59;1.73;;;0.80;;
31500;SDS011;31032;49.512;10.892;2022-07-29T01:18:34;2.85;;;1.02;;
31500;SDS011;31032;49.512;10.892;2022-07-29T01:21:18;2.20;;;0.80;;
31500;SDS011;31032;49.512;10.892;2022-07-29T01:29:30;1.58;;;0.77;;
31500;SDS011;31032;49.512;10.892;2022-07-29T01:39:37;1.25;;;0.80;;
31500;SDS011;31032;49.512;10.892;2022-07-29T01:47:26;3.42;;;1.00;;
31500;SDS011;31032;49.512;10.892;2022-07-29T01:49:59;2.15;;;0.90;;
31500;SDS011;31032;49.512;10.892;2022-07-29T01:53:08;3.45;;;0.98;;
31500;SDS011;31032;49.512;10.892;2022-07-29T01:55:25;3.20;;;1.17;;
31500;SDS011;31032;49.512;10.892;2022-07-29T01:57:53;1.83;;;0.70;;
31500;SDS011;31032;49.512;10.892;2022-07-29T02:00:22;3.30;;;0.90;;
31500;SDS011;31032;49.512;10.892;2022-07-29T02:02:48;2.33;;;0.90;;
31500;SDS011;31032;49.512;10.892;2022-07-29T02:05:15;2.30;;;0.95;;
31500;SDS011;31032;49.512;10.892;2022-07-29T02:07:46;3.42;;;1.10;;
31500;SDS011;31032;49.512;10.892;2022-07-29T02:10:13;2.80;;;1.07;;
31500;SDS011;31032;49.512;10.892;2022-07-29T02:12:40;1.85;;;0.80;;
31500;SDS011;31032;49.512;10.892;2022-07-29T02:15:08;1.90;;;0.82;;
31500;SDS011;31032;49.512;10.892;2022-07-29T02:17:39;2.78;;;0.77;;
31500;SDS011;31032;49.512;10.892;2022-07-29T02:20:09;1.63;;;0.80;;
31500;SDS011;31032;49.512;10.892;2022-07-29T02:22:35;2.55;;;0.90;;
31500;SDS011;31032;49.512;10.892;2022-07-29T02:25:02;4.00;;;0.80;;
31500;SDS011;31032;49.512;10.892;2022-07-29T02:27:29;3.88;;;1.23;;
31500;SDS011;31032;49.512;10.892;2022-07-29T02:29:58;2.03;;;0.80;;
31500;SDS011;31032;49.512;10.892;2022-07-29T02:32:27;1.80;;;0.90;;
31500;SDS011;31032;49.512;10.892;2022-07-29T02:34:54;4.07;;;0.80;;
31500;SDS011;31032;49.512;10.892;2022-07-29T02:37:21;2.13;;;0.73;;
31500;SDS011;31032;49.512;10.892;2022-07-29T02:39:48;2.47;;;0.90;;
31500;SDS011;31032;49.512;10.892;2022-07-29T02:42:18;1.77;;;1.00;;
31500;SDS011;31032;49.512;10.892;2022-07-29T02:44:47;2.80;;;1.05;;
31500;SDS011;31032;49.512;10.892;2022-07-29T02:49:53;2.53;;;0.90;;
31500;SDS011;31032;49.512;10.892;2022-07-29T02:52:26;3.05;;;1.13;;
31500;SDS011;31032;49.512;10.892;2022-07-29T02:57:44;4.68;;;1.35;;
31500;SDS011;31032;49.512;10.892;2022-07-29T03:00:12;3.70;;;0.98;;
31500;SDS011;31032;49.512;10.892;2022-07-29T03:02:40;3.45;;;1.02;;
31500;SDS011;31032;49.512;10.892;2022-07-29T03:05:10;3.47;;;1.05;;
31500;SDS011;31032;49.512;10.892;2022-07-29T03:07:40;2.58;;;1.20;;
31500;SDS011;31032;49.512;10.892;2022-07-29T03:10:10;3.38;;;1.05;;
31500;SDS011;31032;49.512;10.892;2022-07-29T03:12:37;1.88;;;1.27;;
31500;SDS011;31032;49.512;10.892;2022-07-29T03:15:03;3.22;;;1.20;;
31500;SDS011;31032;49.512;10.892;2022-07-29T03:17:29;2.20;;;0.80;;
31500;SDS011;31032;49.512;10.892;2022-07-29T03:19:56;2.70;;;0.90;;
31500;SDS011;31032;49.512;10.892;2022-07-29T03:22:23;2.65;;;1.20;;
31500;SDS011;31032;49.512;10.892;2022-07-29T03:24:49;2.63;;;1.05;;
31500;SDS011;31032;49.512;10.892;2022-07-29T03:27:14;3.25;;;1.00;;
31500;SDS011;31032;49.512;10.892;2022-07-29T03:29:40;4.38;;;0.82;;
31500;SDS011;31032;49.512;10.892;2022-07-29T03:32:05;4.25;;;0.98;;
31500;SDS011;31032;49.512;10.892;2022-07-29T03:34:31;2.97;;;1.48;;
31500;SDS011;31032;49.512;10.892;2022-07-29T03:36:56;1.83;;;1.00;;
31500;SDS011;31032;49.512;10.892;2022-07-29T03:39:23;3.45;;;1.30;;
31500;SDS011;31032;49.512;10.892;2022-07-29T03:41:55;3.78;;;1.13;;
31500;SDS011;31032;49.512;10.892;2022-07-29T03:44:21;3.83;;;0.90;;
31500;SDS011;31032;49.512;10.892;2022-07-29T03:46:49;1.85;;;0.90;;
31500;SDS011;31032;49.512;10.892;2022-07-29T03:49:16;1.63;;;1.00;;
31500;SDS011;31032;49.512;10.892;2022-07-29T03:51:44;3.42;;;1.20;;
31500;SDS011;31032;49.512;10.892;2022-07-29T03:54:10;3.08;;;1.10;;
31500;SDS011;31032;49.512;10.892;2022-07-29T03:56:37;5.03;;;1.48;;
31500;SDS011;31032;49.512;10.892;2022-07-29T03:59:05;3.08;;;1.15;;
31500;SDS011;31032;49.512;10.892;2022-07-29T04:01:32;2.10;;;1.00;;
31500;SDS011;31032;49.512;10.892;2022-07-29T04:03:59;3.45;;;1.05;;
31500;SDS011;31032;49.512;10.892;2022-07-29T04:06:25;3.13;;;1.17;;
31500;SDS011;31032;49.512;10.892;2022-07-29T04:08:51;3.92;;;1.10;;
31500;SDS011;31032;49.512;10.892;2022-07-29T04:11:16;4.40;;;1.17;;
31500;SDS011;31032;49.512;10.892;2022-07-29T04:13:42;2.00;;;1.20;;
31500;SDS011;31032;49.512;10.892;2022-07-29T04:16:07;3.25;;;0.80;;
31500;SDS011;31032;49.512;10.892;2022-07-29T04:18:32;2.72;;;1.10;;
31500;SDS011;31032;49.512;10.892;2022-07-29T04:20:58;3.50;;;1.52;;
31500;SDS011;31032;49.512;10.892;2022-07-29T04:23:25;2.85;;;1.10;;
31500;SDS011;31032;49.512;10.892;2022-07-29T04:25:51;2.50;;;1.20;;
31500;SDS011;31032;49.512;10.892;2022-07-29T04:28:16;3.45;;;1.10;;
31500;SDS011;31032;49.512;10.892;2022-07-29T04:30:42;2.05;;;1.00;;
31500;SDS011;31032;49.512;10.892;2022-07-29T04:33:07;2.95;;;1.05;;
31500;SDS011;31032;49.512;10.892;2022-07-29T04:35:36;4.95;;;1.45;;
31500;SDS011;31032;49.512;10.892;2022-07-29T04:38:03;2.05;;;1.10;;
31500;SDS011;31032;49.512;10.892;2022-07-29T04:40:29;2.17;;;1.10;;
31500;SDS011;31032;49.512;10.892;2022-07-29T04:42:55;3.90;;;1.90;;
31500;SDS011;31032;49.512;10.892;2022-07-29T04:45:20;3.22;;;1.05;;
31500;SDS011;31032;49.512;10.892;2022-07-29T04:47:46;2.58;;;1.30;;
31500;SDS011;31032;49.512;10.892;2022-07-29T04:50:11;4.22;;;1.50;;
31500;SDS011;31032;49.512;10.892;2022-07-29T04:52:36;2.60;;;1.73;;
31500;SDS011;31032;49.512;10.892;2022-07-29T04:55:02;3.42;;;1.17;;
31500;SDS011;31032;49.512;10.892;2022-07-29T04:57:29;4.78;;;1.85;;
31500;SDS011;31032;49.512;10.892;2022-07-29T04:59:54;3.97;;;1.35;;
31500;SDS011;31032;49.512;10.892;2022-07-29T05:02:20;3.92;;;1.55;;
31500;SDS011;31032;49.512;10.892;2022-07-29T05:04:46;4.43;;;1.60;;
31500;SDS011;31032;49.512;10.892;2022-07-29T05:07:12;2.42;;;1.25;;
31500;SDS011;31032;49.512;10.892;2022-07-29T05:09:37;7.47;;;1.48;;
31500;SDS011;31032;49.512;10.892;2022-07-29T05:12:03;4.72;;;1.23;;
31500;SDS011;31032;49.512;10.892;2022-07-29T05:14:28;2.38;;;1.15;;
31500;SDS011;31032;49.512;10.892;2022-07-29T05:16:53;3.28;;;1.25;;
31500;SDS011;31032;49.512;10.892;2022-07-29T05:19:21;2.60;;;1.10;;
31500;SDS011;31032;49.512;10.892;2022-07-29T05:21:47;2.17;;;1.10;;
31500;SDS011;31032;49.512;10.892;2022-07-29T05:24:13;4.78;;;1.38;;
31500;SDS011;31032;49.512;10.892;2022-07-29T05:26:38;3.15;;;1.45;;
31500;SDS011;31032;49.512;10.892;2022-07-29T05:29:04;4.18;;;1.48;;
31500;SDS011;31032;49.512;10.892;2022-07-29T05:31:30;2.78;;;1.20;;
31500;SDS011;31032;49.512;10.892;2022-07-29T05:33:55;4.85;;;1.30;;
31500;SDS011;31032;49.512;10.892;2022-07-29T05:36:20;3.00;;;1.10;;
31500;SDS011;31032;49.512;10.892;2022-07-29T05:38:46;2.20;;;0.90;;
31500;SDS011;31032;49.512;10.892;2022-07-29T05:41:11;3.67;;;1.38;;
31500;SDS011;31032;49.512;10.892;2022-07-29T05:43:36;3.92;;;1.08;;
31500;SDS011;31032;49.512;10.892;2022-07-29T05:46:02;2.28;;;1.35;;
31500;SDS011;31032;49.512;10.892;2022-07-29T05:48:27;4.43;;;1.00;;
31500;SDS011;31032;49.512;10.892;2022-07-29T05:50:52;3.33;;;1.85;;
31500;SDS011;31032;49.512;10.892;2022-07-29T05:53:19;2.33;;;1.20;;
31500;SDS011;31032;49.512;10.892;2022-07-29T05:55:44;5.82;;;1.13;;
31500;SDS011;31032;49.512;10.892;2022-07-29T05:58:10;4.00;;;1.15;;
31500;SDS011;31032;49.512;10.892;2022-07-29T06:00:35;5.90;;;1.10;;
31500;SDS011;31032;49.512;10.892;2022-07-29T06:03:00;2.58;;;1.30;;
31500;SDS011;31032;49.512;10.892;2022-07-29T06:05:26;6.88;;;1.05;;
31500;SDS011;31032;49.512;10.892;2022-07-29T06:07:51;2.97;;;1.10;;
31500;SDS011;31032;49.512;10.892;2022-07-29T06:10:17;3.33;;;0.85;;
31500;SDS011;31032;49.512;10.892;2022-07-29T06:12:42;3.80;;;1.10;;
31500;SDS011;31032;49.512;10.892;2022-07-29T06:15:07;3.13;;;1.17;;
31500;SDS011;31032;49.512;10.892;2022-07-29T06:17:33;3.88;;;1.00;;
31500;SDS011;31032;49.512;10.892;2022-07-29T06:19:58;2.72;;;1.20;;
31500;SDS011;31032;49.512;10.892;2022-07-29T06:22:24;4.78;;;1.40;;
31500;SDS011;31032;49.512;10.892;2022-07-29T06:24:49;3.95;;;1.50;;
31500;SDS011;31032;49.512;10.892;2022-07-29T06:27:15;1.50;;;0.90;;
31500;SDS011;31032;49.512;10.892;2022-07-29T06:29:41;3.55;;;1.63;;
31500;SDS011;31032;49.512;10.892;2022-07-29T06:32:06;7.35;;;1.50;;
31500;SDS011;31032;49.512;10.892;2022-07-29T06:34:33;4.45;;;1.20;;
31500;SDS011;31032;49.512;10.892;2022-07-29T06:36:59;4.90;;;1.58;;
31500;SDS011;31032;49.512;10.892;2022-07-29T06:39:24;3.38;;;1.80;;
31500;SDS011;31032;49.512;10.892;2022-07-29T06:41:50;3.80;;;1.58;;
31500;SDS011;31032;49.512;10.892;2022-07-29T06:44:16;4.53;;;1.60;;
31500;SDS011;31032;49.512;10.892;2022-07-29T06:46:42;5.30;;;1.63;;
31500;SDS011;31032;49.512;10.892;2022-07-29T06:49:08;6.07;;;1.80;;
31500;SDS011;31032;49.512;10.892;2022-07-29T06:51:34;5.78;;;1.38;;
31500;SDS011;31032;49.512;10.892;2022-07-29T06:53:59;3.80;;;1.55;;
31500;SDS011;31032;49.512;10.892;2022-07-29T06:56:25;1.58;;;0.90;;
31500;SDS011;31032;49.512;10.892;2022-07-29T06:58:51;1.95;;;1.20;;
31500;SDS011;31032;49.512;10.892;2022-07-29T07:01:16;7.15;;;1.52;;
31500;SDS011;31032;49.512;10.892;2022-07-29T07:03:41;4.85;;;1.77;;
31500;SDS011;31032;49.512;10.892;2022-07-29T07:06:07;3.00;;;1.40;;
31500;SDS011;31032;49.512;10.892;2022-07-29T07:08:33;2.40;;;1.42;;
31500;SDS011;31032;49.512;10.892;2022-07-29T07:10:58;3.90;;;1.20;;
31500;SDS011;31032;49.512;10.892;2022-07-29T07:13:24;4.03;;;1.50;;
31500;SDS011;31032;49.512;10.892;2022-07-29T07:15:50;2.83;;;1.40;;
31500;SDS011;31032;49.512;10.892;2022-07-29T07:18:17;2.42;;;1.38;;
31500;SDS011;31032;49.512;10.892;2022-07-29T07:20:43;3.20;;;1.30;;
31500;SDS011;31032;49.512;10.892;2022-07-29T07:23:09;3.88;;;1.40;;
31500;SDS011;31032;49.512;10.892;2022-07-29T07:25:35;3.05;;;1.30;;
31500;SDS011;31032;49.512;10.892;2022-07-29T07:28:00;2.97;;;1.45;;
31500;SDS011;31032;49.512;10.892;2022-07-29T07:30:25;4.00;;;1.63;;
31500;SDS011;31032;49.512;10.892;2022-07-29T07:32:52;2.88;;;1.25;;
31500;SDS011;31032;49.512;10.892;2022-07-29T07:35:18;2.42;;;1.25;;
31500;SDS011;31032;49.512;10.892;2022-07-29T07:37:43;3.17;;;1.33;;
31500;SDS011;31032;49.512;10.892;2022-07-29T07:40:09;4.28;;;1.40;;
31500;SDS011;31032;49.512;10.892;2022-07-29T07:42:38;2.20;;;1.35;;
31500;SDS011;31032;49.512;10.892;2022-07-29T07:45:05;2.67;;;1.50;;
31500;SDS011;31032;49.512;10.892;2022-07-29T07:47:31;2.95;;;1.45;;
31500;SDS011;31032;49.512;10.892;2022-07-29T07:49:57;2.70;;;1.20;;
31500;SDS011;31032;49.512;10.892;2022-07-29T07:52:23;2.67;;;1.50;;
31500;SDS011;31032;49.512;10.892;2022-07-29T07:54:48;2.22;;;1.35;;
31500;SDS011;31032;49.512;10.892;2022-07-29T07:57:14;2.75;;;1.20;;
31500;SDS011;31032;49.512;10.892;2022-07-29T07:59:40;2.22;;;1.10;;
31500;SDS011;31032;49.512;10.892;2022-07-29T08:02:06;3.20;;;1.50;;
31500;SDS011;31032;49.512;10.892;2022-07-29T08:04:32;4.32;;;1.40;;
31500;SDS011;31032;49.512;10.892;2022-07-29T08:06:57;1.95;;;1.27;;
31500;SDS011;31032;49.512;10.892;2022-07-29T08:09:24;4.05;;;1.85;;
31500;SDS011;31032;49.512;10.892;2022-07-29T08:11:50;3.67;;;1.60;;
31500;SDS011;31032;49.512;10.892;2022-07-29T08:14:16;5.22;;;1.23;;
31500;SDS011;31032;49.512;10.892;2022-07-29T08:16:41;3.05;;;1.45;;
31500;SDS011;31032;49.512;10.892;2022-07-29T08:19:07;2.70;;;1.20;;
31500;SDS011;31032;49.512;10.892;2022-07-29T08:21:33;3.60;;;1.30;;
31500;SDS011;31032;49.512;10.892;2022-07-29T08:23:58;1.92;;;1.00;;
31500;SDS011;31032;49.512;10.892;2022-07-29T08:26:42;2.08;;;1.20;;
31500;SDS011;31032;49.512;10.892;2022-07-29T08:29:08;2.28;;;1.40;;
31500;SDS011;31032;49.512;10.892;2022-07-29T08:31:35;4.22;;;1.42;;
31500;SDS011;31032;49.512;10.892;2022-07-29T08:34:02;1.98;;;0.95;;
31500;SDS011;31032;49.512;10.892;2022-07-29T08:36:28;2.60;;;1.40;;
31500;SDS011;31032;49.512;10.892;2022-07-29T08:38:53;2.50;;;1.30;;
31500;SDS011;31032;49.512;10.892;2022-07-29T08:41:19;5.10;;;1.17;;
31500;SDS011;31032;49.512;10.892;2022-07-29T08:43:45;7.65;;;1.15;;
31500;SDS011;31032;49.512;10.892;2022-07-29T08:46:11;2.42;;;1.10;;
31500;SDS011;31032;49.512;10.892;2022-07-29T08:48:36;3.72;;;1.05;;
31500;SDS011;31032;49.512;10.892;2022-07-29T08:51:01;2.45;;;1.27;;
31500;SDS011;31032;49.512;10.892;2022-07-29T08:53:28;1.75;;;1.10;;
31500;SDS011;31032;49.512;10.892;2022-07-29T08:55:54;3.08;;;1.30;;
31500;SDS011;31032;49.512;10.892;2022-07-29T08:58:20;2.05;;;1.27;;
31500;SDS011;31032;49.512;10.892;2022-07-29T09:00:49;5.40;;;1.20;;
31500;SDS011;31032;49.512;10.892;2022-07-29T09:03:18;6.18;;;1.40;;
31500;SDS011;31032;49.512;10.892;2022-07-29T09:05:44;4.78;;;1.30;;
31500;SDS011;31032;49.512;10.892;2022-07-29T09:08:10;4.50;;;1.55;;
31500;SDS011;31032;49.512;10.892;2022-07-29T09:10:38;2.47;;;1.17;;
31500;SDS011;31032;49.512;10.892;2022-07-29T09:13:03;2.50;;;0.90;;
31500;SDS011;31032;49.512;10.892;2022-07-29T09:15:28;4.03;;;1.00;;
31500;SDS011;31032;49.512;10.892;2022-07-29T09:17:54;1.73;;;0.80;;
31500;SDS011;31032;49.512;10.892;2022-07-29T09:20:21;1.50;;;0.90;;
31500;SDS011;31032;49.512;10.892;2022-07-29T09:22:48;1.23;;;0.80;;
31500;SDS011;31032;49.512;10.892;2022-07-29T09:25:31;2.10;;;0.88;;
31500;SDS011;31032;49.512;10.892;2022-07-29T09:28:11;1.83;;;1.10;;
31500;SDS011;31032;49.512;10.892;2022-07-29T09:30:51;3.35;;;1.13;;
31500;SDS011;31032;49.512;10.892;2022-07-29T09:33:18;5.30;;;1.30;;
31500;SDS011;31032;49.512;10.892;2022-07-29T09:35:45;2.45;;;1.20;;
31500;SDS011;31032;49.512;10.892;2022-07-29T09:38:13;2.53;;;0.93;;
31500;SDS011;31032;49.512;10.892;2022-07-29T09:40:39;1.70;;;0.75;;
31500;SDS011;31032;49.512;10.892;2022-07-29T09:43:11;2.63;;;1.15;;
31500;SDS011;31032;49.512;10.892;2022-07-29T09:45:37;2.03;;;1.00;;
31500;SDS011;31032;49.512;10.892;2022-07-29T09:48:13;1.90;;;1.05;;
31500;SDS011;31032;49.512;10.892;2022-07-29T09:50:44;3.03;;;1.33;;
31500;SDS011;31032;49.512;10.892;2022-07-29T09:53:11;1.75;;;0.90;;
31500;SDS011;31032;49.512;10.892;2022-07-29T09:55:50;1.33;;;0.80;;
31500;SDS011;31032;49.512;10.892;2022-07-29T09:58:17;2.67;;;0.90;;
31500;SDS011;31032;49.512;10.892;2022-07-29T10:00:44;3.07;;;0.90;;
31500;SDS011;31032;49.512;10.892;2022-07-29T10:03:10;3.38;;;1.00;;
31500;SDS011;31032;49.512;10.892;2022-07-29T10:05:36;3.03;;;1.00;;
31500;SDS011;31032;49.512;10.892;2022-07-29T10:08:02;1.40;;;1.00;;
31500;SDS011;31032;49.512;10.892;2022-07-29T10:10:28;1.90;;;0.82;;
31500;SDS011;31032;49.512;10.892;2022-07-29T10:12:55;2.73;;;0.80;;
31500;SDS011;31032;49.512;10.892;2022-07-29T10:15:33;1.90;;;0.85;;
31500;SDS011;31032;49.512;10.892;2022-07-29T10:18:06;3.13;;;1.10;;
31500;SDS011;31032;49.512;10.892;2022-07-29T10:20:32;2.33;;;0.95;;
31500;SDS011;31032;49.512;10.892;2022-07-29T10:22:58;1.30;;;0.77;;
31500;SDS011;31032;49.512;10.892;2022-07-29T10:25:24;1.40;;;0.95;;
31500;SDS011;31032;49.512;10.892;2022-07-29T10:27:50;1.60;;;0.93;;
31500;SDS011;31032;49.512;10.892;2022-07-29T10:30:20;1.98;;;1.13;;
31500;SDS011;31032;49.512;10.892;2022-07-29T10:40:57;2.25;;;0.90;;
31500;SDS011;31032;49.512;10.892;2022-07-29T10:46:42;2.58;;;1.02;;
31500;SDS011;31032;49.512;10.892;2022-07-29T10:52:15;3.92;;;1.52;;
31500;SDS011;31032;49.512;10.892;2022-07-29T10:57:16;1.50;;;1.02;;
31500;SDS011;31032;49.512;10.892;2022-07-29T11:07:31;1.50;;;0.88;;
31500;SDS011;31032;49.512;10.892;2022-07-29T11:15:02;1.70;;;1.02;;
31500;SDS011;31032;49.512;10.892;2022-07-29T11:20:33;2.33;;;1.17;;
31500;SDS011;31032;49.512;10.892;2022-07-29T11:23:13;2.63;;;1.30;;
31500;SDS011;31032;49.512;10.892;2022-07-29T11:25:41;2.00;;;1.00;;
31500;SDS011;31032;49.512;10.892;2022-07-29T11:28:17;2.20;;;1.10;;
31500;SDS011;31032;49.512;10.892;2022-07-29T11:33:31;2.80;;;0.95;;
31500;SDS011;31032;49.512;10.892;2022-07-29T11:36:08;1.55;;;0.90;;
31500;SDS011;31032;49.512;10.892;2022-07-29T11:38:34;2.03;;;1.10;;
31500;SDS011;31032;49.512;10.892;2022-07-29T11:43:58;2.03;;;1.17;;
31500;SDS011;31032;49.512;10.892;2022-07-29T11:49:25;1.48;;;0.70;;
31500;SDS011;31032;49.512;10.892;2022-07-29T11:51:52;2.05;;;1.02;;
31500;SDS011;31032;49.512;10.892;2022-07-29T11:54:25;1.38;;;1.00;;
31500;SDS011;31032;49.512;10.892;2022-07-29T11:56:58;1.63;;;0.90;;
31500;SDS011;31032;49.512;10.892;2022-07-29T11:59:24;2.58;;;1.00;;
31500;SDS011;31032;49.512;10.892;2022-07-29T12:01:53;2.60;;;1.10;;
31500;SDS011;31032;49.512;10.892;2022-07-29T12:04:22;2.13;;;0.98;;
31500;SDS011;31032;49.512;10.892;2022-07-29T12:06:57;2.63;;;1.00;;
31500;SDS011;31032;49.512;10.892;2022-07-29T12:09:22;1.92;;;1.13;;
31500;SDS011;31032;49.512;10.892;2022-07-29T12:11:56;3.05;;;1.00;;
31500;SDS011;31032;49.512;10.892;2022-07-29T12:14:29;3.50;;;1.08;;
31500;SDS011;31032;49.512;10.892;2022-07-29T12:16:55;2.85;;;0.75;;
31500;SDS011;31032;49.512;10.892;2022-07-29T12:19:22;1.92;;;0.85;;
31500;SDS011;31032;49.512;10.892;2022-07-29T12:21:49;4.30;;;0.88;;
31500;SDS011;31032;49.512;10.892;2022-07-29T12:24:17;4.15;;;0.95;;
31500;SDS011;31032;49.512;10.892;2022-07-29T12:29:16;3.85;;;1.00;;
31500;SDS011;31032;49.512;10.892;2022-07-29T12:31:42;2.25;;;1.00;;
31500;SDS011;31032;49.512;10.892;2022-07-29T12:34:12;3.08;;;1.00;;
31500;SDS011;31032;49.512;10.892;2022-07-29T12:36:40;3.83;;;1.00;;
31500;SDS011;31032;49.512;10.892;2022-07-29T12:39:07;1.98;;;1.08;;
31500;SDS011;31032;49.512;10.892;2022-07-29T12:41:35;2.50;;;1.20;;
31500;SDS011;31032;49.512;10.892;2022-07-29T12:44:01;3.10;;;0.90;;
31500;SDS011;31032;49.512;10.892;2022-07-29T12:46:26;2.55;;;1.00;;
31500;SDS011;31032;49.512;10.892;2022-07-29T12:48:52;2.50;;;1.23;;
31500;SDS011;31032;49.512;10.892;2022-07-29T12:51:27;2.30;;;1.10;;
31500;SDS011;31032;49.512;10.892;2022-07-29T12:56:29;4.13;;;1.10;;
31500;SDS011;31032;49.512;10.892;2022-07-29T12:58:55;1.73;;;1.00;;
31500;SDS011;31032;49.512;10.892;2022-07-29T13:01:20;3.17;;;1.08;;
31500;SDS011;31032;49.512;10.892;2022-07-29T13:03:55;1.98;;;1.00;;
31500;SDS011;31032;49.512;10.892;2022-07-29T13:09:04;1.40;;;0.97;;
31500;SDS011;31032;49.512;10.892;2022-07-29T13:11:30;1.25;;;0.75;;
31500;SDS011;31032;49.512;10.892;2022-07-29T13:13:57;3.08;;;1.02;;
31500;SDS011;31032;49.512;10.892;2022-07-29T13:16:23;3.20;;;1.20;;
31500;SDS011;31032;49.512;10.892;2022-07-29T13:18:48;1.58;;;0.90;;
31500;SDS011;31032;49.512;10.892;2022-07-29T13:21:31;1.50;;;1.00;;
31500;SDS011;31032;49.512;10.892;2022-07-29T13:23:57;1.70;;;1.00;;
31500;SDS011;31032;49.512;10.892;2022-07-29T13:26:22;2.03;;;1.15;;
31500;SDS011;31032;49.512;10.892;2022-07-29T13:28:47;1.48;;;0.93;;
31500;SDS011;31032;49.512;10.892;2022-07-29T13:31:13;1.88;;;1.33;;
31500;SDS011;31032;49.512;10.892;2022-07-29T13:33:38;1.73;;;0.88;;
31500;SDS011;31032;49.512;10.892;2022-07-29T13:36:03;3.83;;;1.10;;
31500;SDS011;31032;49.512;10.892;2022-07-29T13:38:29;2.85;;;1.05;;
31500;SDS011;31032;49.512;10.892;2022-07-29T13:40:54;1.88;;;1.13;;
31500;SDS011;31032;49.512;10.892;2022-07-29T13:43:19;1.60;;;1.00;;
31500;SDS011;31032;49.512;10.892;2022-07-29T13:45:45;1.80;;;1.20;;
31500;SDS011;31032;49.512;10.892;2022-07-29T13:48:10;1.48;;;0.80;;
31500;SDS011;31032;49.512;10.892;2022-07-29T13:50:36;2.75;;;0.90;;
31500;SDS011;31032;49.512;10.892;2022-07-29T13:53:01;2.13;;;0.80;;
31500;SDS011;31032;49.512;10.892;2022-07-29T13:55:27;0.77;;;0.50;;
31500;SDS011;31032;49.512;10.892;2022-07-29T13:57:52;1.42;;;0.80;;
31500;SDS011;31032;49.512;10.892;2022-07-29T14:00:18;7.05;;;2.08;;
31500;SDS011;31032;49.512;10.892;2022-07-29T14:02:44;2.45;;;0.98;;
31500;SDS011;31032;49.512;10.892;2022-07-29T14:05:09;1.13;;;0.80;;
31500;SDS011;31032;49.512;10.892;2022-07-29T14:07:36;1.73;;;0.77;;
31500;SDS011;31032;49.512;10.892;2022-07-29T14:10:03;1.58;;;0.57;;
31500;SDS011;31032;49.512;10.892;2022-07-29T14:12:29;4.00;;;0.77;;
31500;SDS011;31032;49.512;10.892;2022-07-29T14:14:55;0.98;;;0.68;;
31500;SDS011;31032;49.512;10.892;2022-07-29T14:17:21;0.88;;;0.50;;
31500;SDS011;31032;49.512;10.892;2022-07-29T14:19:47;0.98;;;0.63;;
31500;SDS011;31032;49.512;10.892;2022-07-29T14:22:13;1.00;;;0.60;;
31500;SDS011;31032;49.512;10.892;2022-07-29T14:24:38;1.20;;;0.60;;
31500;SDS011;31032;49.512;10.892;2022-07-29T14:27:04;1.27;;;0.50;;
31500;SDS011;31032;49.512;10.892;2022-07-29T14:29:29;1.20;;;0.52;;
31500;SDS011;31032;49.512;10.892;2022-07-29T14:31:55;0.90;;;0.52;;
31500;SDS011;31032;49.512;10.892;2022-07-29T14:34:20;2.80;;;0.80;;
31500;SDS011;31032;49.512;10.892;2022-07-29T14:36:46;1.38;;;0.70;;
31500;SDS011;31032;49.512;10.892;2022-07-29T14:39:11;2.55;;;1.00;;
31500;SDS011;31032;49.512;10.892;2022-07-29T14:41:36;1.42;;;0.88;;
31500;SDS011;31032;49.512;10.892;2022-07-29T14:44:03;2.05;;;0.88;;
31500;SDS011;31032;49.512;10.892;2022-07-29T14:46:28;3.25;;;0.88;;
31500;SDS011;31032;49.512;10.892;2022-07-29T14:48:54;1.52;;;0.90;;
31500;SDS011;31032;49.512;10.892;2022-07-29T14:51:19;3.30;;;1.20;;
31500;SDS011;31032;49.512;10.892;2022-07-29T14:53:45;5.22;;;1.83;;
31500;SDS011;31032;49.512;10.892;2022-07-29T14:56:10;3.38;;;1.48;;
31500;SDS011;31032;49.512;10.892;2022-07-29T14:58:36;3.00;;;1.27;;
31500;SDS011;31032;49.512;10.892;2022-07-29T15:01:01;1.85;;;0.93;;
31500;SDS011;31032;49.512;10.892;2022-07-29T15:03:27;1.88;;;1.20;;
31500;SDS011;31032;49.512;10.892;2022-07-29T15:08:20;1.45;;;1.10;;
31500;SDS011;31032;49.512;10.892;2022-07-29T15:10:46;3.60;;;1.17;;
31500;SDS011;31032;49.512;10.892;2022-07-29T15:13:11;3.35;;;1.10;;
31500;SDS011;31032;49.512;10.892;2022-07-29T15:15:37;5.22;;;1.67;;
31500;SDS011;31032;49.512;10.892;2022-07-29T15:18:03;2.33;;;1.42;;
31500;SDS011;31032;49.512;10.892;2022-07-29T15:20:28;8.85;;;1.70;;
31500;SDS011;31032;49.512;10.892;2022-07-29T15:22:54;5.65;;;2.30;;
31500;SDS011;31032;49.512;10.892;2022-07-29T15:25:21;5.43;;;2.30;;
31500;SDS011;31032;49.512;10.892;2022-07-29T15:27:50;5.97;;;2.40;;
31500;SDS011;31032;49.512;10.892;2022-07-29T15:30:16;4.97;;;2.80;;
31500;SDS011;31032;49.512;10.892;2022-07-29T15:32:45;4.00;;;2.10;;
31500;SDS011;31032;49.512;10.892;2022-07-29T15:35:10;4.20;;;2.60;;
31500;SDS011;31032;49.512;10.892;2022-07-29T15:37:37;5.95;;;3.10;;
31500;SDS011;31032;49.512;10.892;2022-07-29T15:40:03;8.23;;;3.33;;
31500;SDS011;31032;49.512;10.892;2022-07-29T15:42:32;5.30;;;2.80;;
31500;SDS011;31032;49.512;10.892;2022-07-29T15:47:27;6.13;;;3.08;;
31500;SDS011;31032;49.512;10.892;2022-07-29T15:49:53;5.45;;;3.00;;